sensor_id;sensor_type;location;lat;lon;timestamp;pressure;altitude;pressure_sealevel;temperature;humidity
43621;BME280;29213;50.770;7.298;2022-12-07T00:02:25;100952.75;;;3.45;65.58
43621;BME280;29213;50.770;7.298;2022-12-07T00:04:50;100918.84;;;3.27;65.33
43621;BME280;29213;50.770;7.298;2022-12-07T00:07:15;100969.16;;;3.61;65.25
43621;BME280;29213;50.770;7.298;2022-12-07T00:09:41;100905.81;;;3.26;65.34
43621;BME280;29213;50.770;7.298;2022-12-07T00:12:06;100923.03;;;3.43;65.18
43621;BME280;29213;50.770;7.298;2022-12-07T00:14:32;100871.00;;;3.09;65.35
43621;BME280;29213;50.770;7.298;2022-12-07T00:16:57;100858.13;;;3.04;65.22
43621;BME280;29213;50.770;7.298;2022-12-07T00:19:22;101001.16;;;3.81;65.43
43621;BME280;29213;50.770;7.298;2022-12-07T00:21:48;100871.72;;;3.11;65.26
43621;BME280;29213;50.770;7.298;2022-12-07T00:24:13;100977.97;;;3.73;65.27
43621;BME280;29213;50.770;7.298;2022-12-07T00:26:40;100948.41;;;3.57;65.52
43621;BME280;29213;50.770;7.298;2022-12-07T00:29:11;100995.53;;;3.86;65.82
43621;BME280;29213;50.770;7.298;2022-12-07T00:31:39;100918.94;;;3.39;65.71
43621;BME280;29213;50.770;7.298;2022-12-07T00:34:06;100993.84;;;3.85;65.98
43621;BME280;29213;50.770;7.298;2022-12-07T00:36:32;100951.13;;;3.55;65.94
43621;BME280;29213;50.770;7.298;2022-12-07T00:38:59;100996.28;;;3.88;65.55
43621;BME280;29213;50.770;7.298;2022-12-07T00:41:26;100990.16;;;3.87;66.25
43621;BME280;29213;50.770;7.298;2022-12-07T00:43:53;100944.94;;;3.56;66.46
43621;BME280;29213;50.770;7.298;2022-12-07T00:46:19;100979.72;;;3.86;66.40
43621;BME280;29213;50.770;7.298;2022-12-07T00:48:45;100900.31;;;3.42;66.24
43621;BME280;29213;50.770;7.298;2022-12-07T00:51:12;100969.13;;;3.74;66.31
43621;BME280;29213;50.770;7.298;2022-12-07T00:53:39;100929.06;;;3.45;66.33
43621;BME280;29213;50.770;7.298;2022-12-07T00:56:06;100941.34;;;3.57;66.30
43621;BME280;29213;50.770;7.298;2022-12-07T00:58:31;100919.59;;;3.42;66.62
43621;BME280;29213;50.770;7.298;2022-12-07T01:00:59;100974.72;;;3.70;66.27
43621;BME280;29213;50.770;7.298;2022-12-07T01:03:26;100889.53;;;3.07;66.98
43621;BME280;29213;50.770;7.298;2022-12-07T01:05:52;100948.63;;;3.54;66.86
43621;BME280;29213;50.770;7.298;2022-12-07T01:08:19;100940.53;;;3.44;66.95
43621;BME280;29213;50.770;7.298;2022-12-07T01:10:45;100849.63;;;3.01;66.44
43621;BME280;29213;50.770;7.298;2022-12-07T01:13:11;100806.09;;;2.84;66.47
43621;BME280;29213;50.770;7.298;2022-12-07T01:15:40;100860.66;;;3.19;66.32
43621;BME280;29213;50.770;7.298;2022-12-07T01:18:06;100969.94;;;3.88;66.37
43621;BME280;29213;50.770;7.298;2022-12-07T01:20:31;100826.91;;;3.00;66.44
43621;BME280;29213;50.770;7.298;2022-12-07T01:22:57;100958.97;;;3.81;66.39
43621;BME280;29213;50.770;7.298;2022-12-07T01:25:22;100826.47;;;3.06;66.45
43621;BME280;29213;50.770;7.298;2022-12-07T01:27:47;100927.13;;;3.60;65.96
43621;BME280;29213;50.770;7.298;2022-12-07T01:30:13;100961.63;;;3.81;66.48
43621;BME280;29213;50.770;7.298;2022-12-07T01:32:39;100887.66;;;3.47;66.27
43621;BME280;29213;50.770;7.298;2022-12-07T01:35:04;100927.22;;;3.58;66.38
43621;BME280;29213;50.770;7.298;2022-12-07T01:37:35;100977.72;;;3.89;66.23
43621;BME280;29213;50.770;7.298;2022-12-07T01:40:01;100887.06;;;3.30;66.57
43621;BME280;29213;50.770;7.298;2022-12-07T01:42:27;100888.97;;;3.28;66.88
43621;BME280;29213;50.770;7.298;2022-12-07T01:47:47;100918.91;;;3.52;66.73
43621;BME280;29213;50.770;7.298;2022-12-07T01:50:14;100945.63;;;3.71;66.61
43621;BME280;29213;50.770;7.298;2022-12-07T01:52:39;100942.31;;;3.56;66.59
43621;BME280;29213;50.770;7.298;2022-12-07T01:55:09;100971.00;;;3.85;66.84
43621;BME280;29213;50.770;7.298;2022-12-07T01:57:39;100969.19;;;3.86;66.79
43621;BME280;29213;50.770;7.298;2022-12-07T02:00:07;100968.25;;;3.87;66.94
43621;BME280;29213;50.770;7.298;2022-12-07T02:02:37;100849.09;;;3.08;66.75
43621;BME280;29213;50.770;7.298;2022-12-07T02:05:05;100962.34;;;3.83;66.86
43621;BME280;29213;50.770;7.298;2022-12-07T02:07:32;100922.47;;;3.64;66.78
43621;BME280;29213;50.770;7.298;2022-12-07T02:10:19;100954.44;;;3.83;66.58
43621;BME280;29213;50.770;7.298;2022-12-07T02:12:48;100954.44;;;3.83;66.74
43621;BME280;29213;50.770;7.298;2022-12-07T02:15:14;100950.75;;;3.86;66.64
43621;BME280;29213;50.770;7.298;2022-12-07T02:17:58;100835.50;;;3.15;67.04
43621;BME280;29213;50.770;7.298;2022-12-07T02:20:35;100883.84;;;3.51;66.92
43621;BME280;29213;50.770;7.298;2022-12-07T02:30:55;100884.47;;;3.55;66.52
43621;BME280;29213;50.770;7.298;2022-12-07T02:33:31;100943.69;;;3.86;66.59
43621;BME280;29213;50.770;7.298;2022-12-07T02:36:10;100946.53;;;3.83;66.96
43621;BME280;29213;50.770;7.298;2022-12-07T02:38:48;100822.34;;;3.15;66.87
43621;BME280;29213;50.770;7.298;2022-12-07T02:41:22;100907.94;;;3.58;66.65
43621;BME280;29213;50.770;7.298;2022-12-07T02:43:54;100806.38;;;2.92;66.71
43621;BME280;29213;50.770;7.298;2022-12-07T02:46:24;100782.72;;;2.79;66.96
43621;BME280;29213;50.770;7.298;2022-12-07T02:48:52;100951.63;;;3.73;67.74
43621;BME280;29213;50.770;7.298;2022-12-07T02:51:18;100884.84;;;3.37;67.20
43621;BME280;29213;50.770;7.298;2022-12-07T02:53:44;100948.44;;;3.81;67.56
43621;BME280;29213;50.770;7.298;2022-12-07T02:56:27;100877.56;;;3.41;67.03
43621;BME280;29213;50.770;7.298;2022-12-07T03:05:10;100936.81;;;3.97;67.25
43621;BME280;29213;50.770;7.298;2022-12-07T03:07:59;100937.88;;;3.94;66.83
43621;BME280;29213;50.770;7.298;2022-12-07T03:15:47;100806.88;;;3.10;67.05
43621;BME280;29213;50.770;7.298;2022-12-07T03:18:17;100885.00;;;3.47;67.25
43621;BME280;29213;50.770;7.298;2022-12-07T03:20:45;100847.84;;;3.39;67.21
43621;BME280;29213;50.770;7.298;2022-12-07T03:23:15;100906.75;;;3.75;66.93
43621;BME280;29213;50.770;7.298;2022-12-07T03:25:47;100934.66;;;4.02;67.02
43621;BME280;29213;50.770;7.298;2022-12-07T03:28:16;100894.19;;;3.79;66.91
43621;BME280;29213;50.770;7.298;2022-12-07T03:30:47;100822.34;;;3.15;67.13
43621;BME280;29213;50.770;7.298;2022-12-07T03:33:24;100891.31;;;3.57;67.38
43621;BME280;29213;50.770;7.298;2022-12-07T03:36:03;100869.31;;;3.45;67.63
43621;BME280;29213;50.770;7.298;2022-12-07T03:38:38;100881.72;;;3.56;67.57
43621;BME280;29213;50.770;7.298;2022-12-07T03:41:15;100926.72;;;3.91;67.34
43621;BME280;29213;50.770;7.298;2022-12-07T03:43:42;100736.88;;;2.70;67.27
43621;BME280;29213;50.770;7.298;2022-12-07T03:46:20;100928.28;;;3.93;67.33
43621;BME280;29213;50.770;7.298;2022-12-07T03:51:56;100920.88;;;3.98;67.21
43621;BME280;29213;50.770;7.298;2022-12-07T03:54:28;100928.66;;;4.00;67.26
43621;BME280;29213;50.770;7.298;2022-12-07T03:56:55;100876.75;;;3.65;67.05
43621;BME280;29213;50.770;7.298;2022-12-07T03:59:23;100926.38;;;3.95;67.38
43621;BME280;29213;50.770;7.298;2022-12-07T04:01:57;100933.66;;;3.92;67.51
43621;BME280;29213;50.770;7.298;2022-12-07T04:04:24;100883.63;;;3.54;67.50
43621;BME280;29213;50.770;7.298;2022-12-07T04:06:50;100783.44;;;2.94;67.60
43621;BME280;29213;50.770;7.298;2022-12-07T04:09:16;100913.78;;;3.74;67.58
43621;BME280;29213;50.770;7.298;2022-12-07T04:11:42;100899.78;;;3.74;67.21
43621;BME280;29213;50.770;7.298;2022-12-07T04:14:07;100880.66;;;3.59;67.81
43621;BME280;29213;50.770;7.298;2022-12-07T04:16:45;100943.59;;;3.88;67.42
43621;BME280;29213;50.770;7.298;2022-12-07T04:19:12;100895.00;;;3.55;67.97
43621;BME280;29213;50.770;7.298;2022-12-07T04:21:38;100745.19;;;2.64;67.82
43621;BME280;29213;50.770;7.298;2022-12-07T04:24:04;100935.06;;;3.84;67.71
43621;BME280;29213;50.770;7.298;2022-12-07T04:26:29;100923.50;;;3.74;67.92
43621;BME280;29213;50.770;7.298;2022-12-07T04:28:54;100866.78;;;3.44;67.80
43621;BME280;29213;50.770;7.298;2022-12-07T04:31:20;100878.59;;;3.51;67.65
43621;BME280;29213;50.770;7.298;2022-12-07T04:33:45;100896.13;;;3.64;68.03
43621;BME280;29213;50.770;7.298;2022-12-07T04:36:11;100876.16;;;3.48;67.76
43621;BME280;29213;50.770;7.298;2022-12-07T04:38:36;100846.69;;;3.43;67.91
43621;BME280;29213;50.770;7.298;2022-12-07T04:41:06;100895.41;;;3.61;67.78
43621;BME280;29213;50.770;7.298;2022-12-07T04:43:31;100896.66;;;3.69;67.60
43621;BME280;29213;50.770;7.298;2022-12-07T04:45:57;100884.44;;;3.68;68.03
43621;BME280;29213;50.770;7.298;2022-12-07T04:48:22;100838.88;;;3.41;67.41
43621;BME280;29213;50.770;7.298;2022-12-07T04:50:48;100929.41;;;4.02;67.71
43621;BME280;29213;50.770;7.298;2022-12-07T04:53:14;100844.00;;;3.56;67.59
43621;BME280;29213;50.770;7.298;2022-12-07T04:55:40;100850.13;;;3.56;67.03
43621;BME280;29213;50.770;7.298;2022-12-07T04:58:05;100909.50;;;3.98;67.21
43621;BME280;29213;50.770;7.298;2022-12-07T05:00:31;100928.66;;;4.00;67.23
43621;BME280;29213;50.770;7.298;2022-12-07T05:02:56;100770.34;;;3.05;67.12
43621;BME280;29213;50.770;7.298;2022-12-07T05:05:21;100755.16;;;2.85;67.47
43621;BME280;29213;50.770;7.298;2022-12-07T05:07:47;100803.91;;;3.15;67.12
43621;BME280;29213;50.770;7.298;2022-12-07T05:10:12;100866.59;;;3.47;67.26
43621;BME280;29213;50.770;7.298;2022-12-07T05:12:38;100765.97;;;2.80;67.59
43621;BME280;29213;50.770;7.298;2022-12-07T05:15:04;100902.13;;;3.66;67.91
43621;BME280;29213;50.770;7.298;2022-12-07T05:17:30;100891.31;;;3.57;67.62
43621;BME280;29213;50.770;7.298;2022-12-07T05:19:55;100885.94;;;3.59;67.30
43621;BME280;29213;50.770;7.298;2022-12-07T05:22:20;100867.09;;;3.52;66.91
43621;BME280;29213;50.770;7.298;2022-12-07T05:24:46;100887.38;;;3.63;67.33
43621;BME280;29213;50.770;7.298;2022-12-07T05:27:12;100864.22;;;3.55;67.28
43621;BME280;29213;50.770;7.298;2022-12-07T05:29:37;100852.25;;;3.51;66.98
43621;BME280;29213;50.770;7.298;2022-12-07T05:32:02;100886.03;;;3.57;67.17
43621;BME280;29213;50.770;7.298;2022-12-07T05:34:28;100903.25;;;3.74;66.85
43621;BME280;29213;50.770;7.298;2022-12-07T05:36:53;100785.06;;;3.08;67.15
43621;BME280;29213;50.770;7.298;2022-12-07T05:39:18;100736.66;;;2.73;67.27
43621;BME280;29213;50.770;7.298;2022-12-07T05:41:44;100888.00;;;3.67;67.14
43621;BME280;29213;50.770;7.298;2022-12-07T05:44:28;100902.94;;;3.79;66.75
43621;BME280;29213;50.770;7.298;2022-12-07T05:46:53;100874.88;;;3.54;67.12
43621;BME280;29213;50.770;7.298;2022-12-07T05:49:19;100921.47;;;3.78;67.33
43621;BME280;29213;50.770;7.298;2022-12-07T05:51:44;100874.88;;;3.54;67.35
43621;BME280;29213;50.770;7.298;2022-12-07T05:54:10;100909.72;;;3.70;67.31
43621;BME280;29213;50.770;7.298;2022-12-07T05:56:35;100825.91;;;3.14;67.21
43621;BME280;29213;50.770;7.298;2022-12-07T05:59:01;100928.78;;;3.74;67.57
43621;BME280;29213;50.770;7.298;2022-12-07T06:01:45;100872.81;;;3.46;67.14
43621;BME280;29213;50.770;7.298;2022-12-07T06:04:10;100922.53;;;3.75;67.50
43621;BME280;29213;50.770;7.298;2022-12-07T06:06:36;100836.72;;;3.22;67.73
43621;BME280;29213;50.770;7.298;2022-12-07T06:09:02;100777.69;;;2.76;67.28
43621;BME280;29213;50.770;7.298;2022-12-07T06:11:28;100798.28;;;2.95;67.23
43621;BME280;29213;50.770;7.298;2022-12-07T06:14:12;100893.19;;;3.55;67.43
43621;BME280;29213;50.770;7.298;2022-12-07T06:16:37;100861.25;;;3.35;67.33
43621;BME280;29213;50.770;7.298;2022-12-07T06:19:03;100878.78;;;3.48;67.45
43621;BME280;29213;50.770;7.298;2022-12-07T06:21:28;100905.50;;;3.68;67.31
43621;BME280;29213;50.770;7.298;2022-12-07T06:23:54;100812.69;;;3.02;67.54
43621;BME280;29213;50.770;7.298;2022-12-07T06:26:19;100811.09;;;3.00;67.23
43621;BME280;29213;50.770;7.298;2022-12-07T06:28:45;100895.00;;;3.55;67.47
43621;BME280;29213;50.770;7.298;2022-12-07T06:31:10;100766.66;;;2.71;67.32
43621;BME280;29213;50.770;7.298;2022-12-07T06:33:36;100874.41;;;3.35;67.39
43621;BME280;29213;50.770;7.298;2022-12-07T06:36:02;100888.91;;;3.41;67.77
43621;BME280;29213;50.770;7.298;2022-12-07T06:38:27;100899.34;;;3.43;67.76
43621;BME280;29213;50.770;7.298;2022-12-07T06:40:52;100939.84;;;3.66;67.30
43621;BME280;29213;50.770;7.298;2022-12-07T06:43:18;100947.41;;;3.71;67.08
43621;BME280;29213;50.770;7.298;2022-12-07T06:45:43;100914.69;;;3.49;67.70
43621;BME280;29213;50.770;7.298;2022-12-07T06:48:09;100927.22;;;3.58;67.07
43621;BME280;29213;50.770;7.298;2022-12-07T06:50:34;100943.22;;;3.68;67.13
43621;BME280;29213;50.770;7.298;2022-12-07T06:52:59;100920.72;;;3.51;66.97
43621;BME280;29213;50.770;7.298;2022-12-07T06:55:25;100881.59;;;3.20;66.39
43621;BME280;29213;50.770;7.298;2022-12-07T06:57:50;100854.78;;;3.02;66.66
43621;BME280;29213;50.770;7.298;2022-12-07T07:00:16;100963.31;;;3.69;66.71
43621;BME280;29213;50.770;7.298;2022-12-07T07:02:41;100846.34;;;3.10;66.65
43621;BME280;29213;50.770;7.298;2022-12-07T07:05:07;100916.59;;;3.60;66.14
43621;BME280;29213;50.770;7.298;2022-12-07T07:07:32;100896.16;;;3.51;65.68
43621;BME280;29213;50.770;7.298;2022-12-07T07:09:58;100871.53;;;3.39;65.98
43621;BME280;29213;50.770;7.298;2022-12-07T07:12:23;100893.25;;;3.42;65.62
43621;BME280;29213;50.770;7.298;2022-12-07T07:14:48;100885.16;;;3.32;66.01
43621;BME280;29213;50.770;7.298;2022-12-07T07:17:15;100974.28;;;3.76;66.33
43621;BME280;29213;50.770;7.298;2022-12-07T07:19:40;100961.72;;;3.80;66.02
43621;BME280;29213;50.770;7.298;2022-12-07T07:22:06;100929.56;;;3.50;66.05
43621;BME280;29213;50.770;7.298;2022-12-07T07:24:31;100822.88;;;2.94;65.93
43621;BME280;29213;50.770;7.298;2022-12-07T07:26:57;100954.78;;;3.79;65.94
43621;BME280;29213;50.770;7.298;2022-12-07T07:29:22;100905.84;;;3.50;65.75
43621;BME280;29213;50.770;7.298;2022-12-07T07:31:47;100815.41;;;3.01;65.34
43621;BME280;29213;50.770;7.298;2022-12-07T07:34:13;100819.72;;;3.02;65.82
43621;BME280;29213;50.770;7.298;2022-12-07T07:36:38;100905.44;;;3.56;65.86
43621;BME280;29213;50.770;7.298;2022-12-07T07:39:04;100910.91;;;3.53;65.69
43621;BME280;29213;50.770;7.298;2022-12-07T07:41:30;100900.16;;;3.56;65.87
43621;BME280;29213;50.770;7.298;2022-12-07T07:43:55;100886.59;;;3.49;65.82
43621;BME280;29213;50.770;7.298;2022-12-07T07:46:20;100946.53;;;3.83;66.06
43621;BME280;29213;50.770;7.298;2022-12-07T07:48:46;100924.22;;;3.76;66.03
43621;BME280;29213;50.770;7.298;2022-12-07T07:51:11;100922.03;;;3.70;66.00
43621;BME280;29213;50.770;7.298;2022-12-07T07:53:36;100917.94;;;3.66;65.79
43621;BME280;29213;50.770;7.298;2022-12-07T07:56:02;100962.53;;;3.93;66.49
43621;BME280;29213;50.770;7.298;2022-12-07T07:58:28;100925.84;;;3.66;66.59
43621;BME280;29213;50.770;7.298;2022-12-07T08:00:53;100970.81;;;4.00;66.35
43621;BME280;29213;50.770;7.298;2022-12-07T08:03:19;100971.69;;;4.00;66.13
43621;BME280;29213;50.770;7.298;2022-12-07T08:05:45;100947.41;;;3.71;65.96
43621;BME280;29213;50.770;7.298;2022-12-07T08:08:10;100969.63;;;3.80;66.38
43621;BME280;29213;50.770;7.298;2022-12-07T08:10:36;100927.13;;;3.60;66.63
43621;BME280;29213;50.770;7.298;2022-12-07T08:13:02;100978.47;;;3.92;66.35
43621;BME280;29213;50.770;7.298;2022-12-07T08:15:40;100812.16;;;2.97;65.99
43621;BME280;29213;50.770;7.298;2022-12-07T08:18:06;100954.75;;;3.92;66.26
43621;BME280;29213;50.770;7.298;2022-12-07T08:20:33;100948.34;;;3.83;66.10
43621;BME280;29213;50.770;7.298;2022-12-07T08:22:59;100908.59;;;3.61;65.88
43621;BME280;29213;50.770;7.298;2022-12-07T08:25:25;100953.78;;;3.93;66.10
43621;BME280;29213;50.770;7.298;2022-12-07T08:27:51;100972.28;;;4.04;66.09
43621;BME280;29213;50.770;7.298;2022-12-07T08:30:17;100911.44;;;3.58;65.86
43621;BME280;29213;50.770;7.298;2022-12-07T08:32:44;100967.69;;;3.95;66.13
43621;BME280;29213;50.770;7.298;2022-12-07T08:35:10;100909.31;;;3.64;65.70
43621;BME280;29213;50.770;7.298;2022-12-07T08:37:36;100965.81;;;4.21;72.64
43621;BME280;29213;50.770;7.298;2022-12-07T08:40:03;100922.72;;;4.81;71.15
43621;BME280;29213;50.770;7.298;2022-12-07T08:42:29;100847.97;;;4.58;66.58
43621;BME280;29213;50.770;7.298;2022-12-07T08:45:06;100965.38;;;5.11;65.25
43621;BME280;29213;50.770;7.298;2022-12-07T08:47:35;100902.28;;;4.60;64.87
43621;BME280;29213;50.770;7.298;2022-12-07T08:50:02;100945.63;;;4.80;64.79
43621;BME280;29213;50.770;7.298;2022-12-07T08:52:30;100987.53;;;4.97;64.38
43621;BME280;29213;50.770;7.298;2022-12-07T08:54:58;100982.09;;;4.87;64.05
43621;BME280;29213;50.770;7.298;2022-12-07T08:57:25;100944.03;;;4.66;64.23
43621;BME280;29213;50.770;7.298;2022-12-07T08:59:51;100943.44;;;4.63;64.39
43621;BME280;29213;50.770;7.298;2022-12-07T09:02:17;100913.75;;;4.48;64.72
43621;BME280;29213;50.770;7.298;2022-12-07T09:04:42;100914.06;;;4.32;64.52
43621;BME280;29213;50.770;7.298;2022-12-07T09:07:08;100982.91;;;4.64;64.67
43621;BME280;29213;50.770;7.298;2022-12-07T09:09:34;100938.03;;;4.28;65.25
43621;BME280;29213;50.770;7.298;2022-12-07T09:11:59;100940.56;;;4.30;64.89
43621;BME280;29213;50.770;7.298;2022-12-07T09:14:25;100967.56;;;4.45;65.11
43621;BME280;29213;50.770;7.298;2022-12-07T09:16:50;100845.44;;;3.73;64.87
43621;BME280;29213;50.770;7.298;2022-12-07T09:19:16;100989.00;;;4.65;64.94
43621;BME280;29213;50.770;7.298;2022-12-07T09:21:42;100906.69;;;4.12;65.07
43621;BME280;29213;50.770;7.298;2022-12-07T09:24:07;100990.22;;;4.61;64.99
43621;BME280;29213;50.770;7.298;2022-12-07T09:26:34;100928.66;;;4.24;64.79
43621;BME280;29213;50.770;7.298;2022-12-07T09:29:02;100925.19;;;4.24;64.71
43621;BME280;29213;50.770;7.298;2022-12-07T09:31:27;100967.69;;;4.43;64.82
43621;BME280;29213;50.770;7.298;2022-12-07T09:33:58;100936.44;;;4.26;65.00
43621;BME280;29213;50.770;7.298;2022-12-07T09:36:25;100986.38;;;4.65;65.18
43621;BME280;29213;50.770;7.298;2022-12-07T09:38:50;100905.94;;;4.10;65.02
43621;BME280;29213;50.770;7.298;2022-12-07T09:41:16;100940.75;;;4.27;64.84
43621;BME280;29213;50.770;7.298;2022-12-07T09:43:42;100791.88;;;3.24;64.97
43621;BME280;29213;50.770;7.298;2022-12-07T09:46:12;100908.53;;;3.99;65.23
43621;BME280;29213;50.770;7.298;2022-12-07T09:48:45;100981.91;;;4.54;64.94
43621;BME280;29213;50.770;7.298;2022-12-07T09:51:17;100959.75;;;4.43;65.05
43621;BME280;29213;50.770;7.298;2022-12-07T09:53:44;100978.31;;;4.55;65.01
43621;BME280;29213;50.770;7.298;2022-12-07T09:56:13;100975.19;;;4.61;64.81
43621;BME280;29213;50.770;7.298;2022-12-07T09:58:39;100978.69;;;4.62;64.64
43621;BME280;29213;50.770;7.298;2022-12-07T10:01:11;100984.97;;;4.48;65.06
43621;BME280;29213;50.770;7.298;2022-12-07T10:03:50;100974.88;;;4.41;65.22
43621;BME280;29213;50.770;7.298;2022-12-07T10:06:16;100976.09;;;4.49;65.26
43621;BME280;29213;50.770;7.298;2022-12-07T10:08:42;100976.63;;;4.54;64.72
43621;BME280;29213;50.770;7.298;2022-12-07T10:11:10;100968.50;;;4.57;64.78
43621;BME280;29213;50.770;7.298;2022-12-07T10:16:04;100961.91;;;4.63;64.92
43621;BME280;29213;50.770;7.298;2022-12-07T10:18:39;100964.41;;;4.53;65.24
43621;BME280;29213;50.770;7.298;2022-12-07T10:21:12;100962.91;;;4.49;64.96
43621;BME280;29213;50.770;7.298;2022-12-07T10:26:53;100957.69;;;4.60;65.07
43621;BME280;29213;50.770;7.298;2022-12-07T10:32:04;100950.03;;;4.57;64.70
43621;BME280;29213;50.770;7.298;2022-12-07T10:34:36;100946.19;;;4.61;64.78
43621;BME280;29213;50.770;7.298;2022-12-07T10:37:17;100950.53;;;4.62;64.82
43621;BME280;29213;50.770;7.298;2022-12-07T10:39:55;100944.03;;;4.66;64.79
43621;BME280;29213;50.770;7.298;2022-12-07T10:45:17;100946.00;;;4.51;65.04
43621;BME280;29213;50.770;7.298;2022-12-07T10:47:47;100942.16;;;4.68;65.16
43621;BME280;29213;50.770;7.298;2022-12-07T10:50:46;100937.81;;;4.79;65.22
43621;BME280;29213;50.770;7.298;2022-12-07T10:56:09;100910.34;;;4.70;65.22
43621;BME280;29213;50.770;7.298;2022-12-07T11:02:15;100925.13;;;4.84;64.83
43621;BME280;29213;50.770;7.298;2022-12-07T11:11:03;100910.84;;;4.75;65.01
43621;BME280;29213;50.770;7.298;2022-12-07T11:16:36;100841.88;;;4.57;64.84
43621;BME280;29213;50.770;7.298;2022-12-07T11:21:51;100900.66;;;5.05;64.92
43621;BME280;29213;50.770;7.298;2022-12-07T11:24:49;100893.22;;;4.87;65.11
43621;BME280;29213;50.770;7.298;2022-12-07T11:30:19;100891.31;;;5.01;64.54
43621;BME280;29213;50.770;7.298;2022-12-07T11:35:59;100877.63;;;4.95;64.45
43621;BME280;29213;50.770;7.298;2022-12-07T11:38:59;100872.34;;;4.95;64.90
43621;BME280;29213;50.770;7.298;2022-12-07T11:41:27;100876.31;;;5.01;64.34
43621;BME280;29213;50.770;7.298;2022-12-07T11:44:01;100870.19;;;5.12;64.36
43621;BME280;29213;50.770;7.298;2022-12-07T11:51:39;100854.16;;;5.48;63.81
43621;BME280;29213;50.770;7.298;2022-12-07T11:54:15;100854.53;;;5.43;63.73
43621;BME280;29213;50.770;7.298;2022-12-07T11:56:43;100854.31;;;5.46;64.05
43621;BME280;29213;50.770;7.298;2022-12-07T11:59:17;100825.28;;;5.23;64.03
43621;BME280;29213;50.770;7.298;2022-12-07T12:01:55;100848.19;;;5.46;63.62
43621;BME280;29213;50.770;7.298;2022-12-07T12:04:53;100843.59;;;5.48;63.54
43621;BME280;29213;50.770;7.298;2022-12-07T12:07:23;100823.47;;;5.35;63.34
43621;BME280;29213;50.770;7.298;2022-12-07T12:10:00;100846.00;;;5.51;63.20
43621;BME280;29213;50.770;7.298;2022-12-07T12:15:28;100832.94;;;5.38;62.49
43621;BME280;29213;50.770;7.298;2022-12-07T12:20:48;100836.81;;;5.11;62.25
43621;BME280;29213;50.770;7.298;2022-12-07T12:23:24;100839.22;;;5.14;62.22
43621;BME280;29213;50.770;7.298;2022-12-07T12:25:59;100783.56;;;4.72;61.76
43621;BME280;29213;50.770;7.298;2022-12-07T12:29:00;100836.59;;;5.03;61.80
43621;BME280;29213;50.770;7.298;2022-12-07T12:33:57;100832.88;;;4.94;62.07
43621;BME280;29213;50.770;7.298;2022-12-07T12:47:51;100818.09;;;4.46;62.06
43621;BME280;29213;50.770;7.298;2022-12-07T12:50:20;100828.53;;;4.70;62.19
43621;BME280;29213;50.770;7.298;2022-12-07T12:53:24;100817.88;;;4.72;61.96
43621;BME280;29213;50.770;7.298;2022-12-07T12:57:07;100822.81;;;4.76;61.82
43621;BME280;29213;50.770;7.298;2022-12-07T13:02:14;100828.44;;;4.72;61.92
43621;BME280;29213;50.770;7.298;2022-12-07T13:04:59;100827.47;;;4.73;62.46
43621;BME280;29213;50.770;7.298;2022-12-07T13:10:32;100823.41;;;4.80;62.22
43621;BME280;29213;50.770;7.298;2022-12-07T13:20:47;100818.47;;;4.75;62.99
43621;BME280;29213;50.770;7.298;2022-12-07T13:23:16;100819.22;;;4.77;63.13
43621;BME280;29213;50.770;7.298;2022-12-07T13:26:17;100812.00;;;4.79;62.84
43621;BME280;29213;50.770;7.298;2022-12-07T13:28:37;100818.97;;;4.80;62.63
43621;BME280;29213;50.770;7.298;2022-12-07T13:33:53;100763.66;;;4.56;63.01
43621;BME280;29213;50.770;7.298;2022-12-07T13:36:24;100812.50;;;4.85;63.22
43621;BME280;29213;50.770;7.298;2022-12-07T13:38:58;100777.72;;;4.68;63.21
43621;BME280;29213;50.770;7.298;2022-12-07T13:41:26;100792.81;;;4.77;63.35
43621;BME280;29213;50.770;7.298;2022-12-07T13:49:46;100795.09;;;4.82;63.64
43621;BME280;29213;50.770;7.298;2022-12-07T13:52:19;100798.91;;;4.89;63.36
43621;BME280;29213;50.770;7.298;2022-12-07T13:54:56;100709.22;;;4.32;63.51
43621;BME280;29213;50.770;7.298;2022-12-07T13:57:24;100755.63;;;4.58;63.64
43621;BME280;29213;50.770;7.298;2022-12-07T13:59:50;100756.38;;;4.60;63.52
43621;BME280;29213;50.770;7.298;2022-12-07T14:02:25;100792.44;;;4.82;63.47
43621;BME280;29213;50.770;7.298;2022-12-07T14:04:51;100656.97;;;4.03;63.54
43621;BME280;29213;50.770;7.298;2022-12-07T14:07:25;100786.09;;;4.85;64.21
43621;BME280;29213;50.770;7.298;2022-12-07T14:10:24;100784.75;;;4.79;63.58
43621;BME280;29213;50.770;7.298;2022-12-07T14:12:50;100717.59;;;4.37;63.87
43621;BME280;29213;50.770;7.298;2022-12-07T14:15:24;100782.13;;;4.79;63.92
43621;BME280;29213;50.770;7.298;2022-12-07T14:17:52;100722.03;;;4.37;63.57
43621;BME280;29213;50.770;7.298;2022-12-07T14:20:32;100777.09;;;4.76;64.06
43621;BME280;29213;50.770;7.298;2022-12-07T14:22:58;100775.19;;;4.78;63.81
43621;BME280;29213;50.770;7.298;2022-12-07T14:25:26;100775.16;;;4.89;64.61
43621;BME280;29213;50.770;7.298;2022-12-07T14:27:57;100769.78;;;4.91;63.98
43621;BME280;29213;50.770;7.298;2022-12-07T14:30:28;100761.50;;;4.84;63.26
43621;BME280;29213;50.770;7.298;2022-12-07T14:32:59;100771.34;;;4.82;63.60
43621;BME280;29213;50.770;7.298;2022-12-07T14:35:26;100768.59;;;4.84;63.83
43621;BME280;29213;50.770;7.298;2022-12-07T14:37:51;100723.38;;;4.54;63.93
43621;BME280;29213;50.770;7.298;2022-12-07T14:40:25;100771.34;;;4.82;63.85
43621;BME280;29213;50.770;7.298;2022-12-07T14:42:55;100764.13;;;4.84;63.73
43621;BME280;29213;50.770;7.298;2022-12-07T14:45:22;100763.91;;;4.87;64.10
43621;BME280;29213;50.770;7.298;2022-12-07T14:47:48;100765.84;;;4.85;64.14
43621;BME280;29213;50.770;7.298;2022-12-07T14:50:16;100757.06;;;4.85;64.07
43621;BME280;29213;50.770;7.298;2022-12-07T14:52:47;100750.94;;;4.84;63.82
43621;BME280;29213;50.770;7.298;2022-12-07T14:55:25;100754.53;;;4.83;63.88
43621;BME280;29213;50.770;7.298;2022-12-07T14:57:51;100661.28;;;4.27;64.03
43621;BME280;29213;50.770;7.298;2022-12-07T15:00:17;100741.00;;;4.65;64.02